Date,TemperatureHighF,TemperatureAvgF,TemperatureLowF,DewpointHighF,DewpointAvgF,DewpointLowF,HumidityHigh,HumidityAvg,HumidityLow,PressureMaxIn,PressureMinIn,WindSpeedMaxMPH,WindSpeedAvgMPH,GustSpeedMaxMPH,PrecipitationSumIn
2013-3-1,69.0,55.4,48.0,54.0,49.4,47.0,97,82,53,30.41,30.23,6,2,0,0.00
2013-3-2,65.0,55.8,49.0,53.0,49.8,47.0,94,81,64,30.22,30.07,10,4,0,0.00
2013-3-3,51.0,48.9,47.0,48.0,46.9,45.0,95,93,90,30.09,30.04,18,12,0,0.00
2013-3-4,50.0,47.0,45.0,45.0,43.5,42.0,94,88,78,30.13,30.05,17,6,0,0.00
2013-3-5,55.0,49.0,44.0,46.0,42.3,40.0,89,78,67,30.05,29.83,13,5,0,0.00
2013-3-6,53.0,49.7,46.0,47.0,44.6,43.0,92,83,71,30.05,29.83,13,6,0,0.00
2013-3-7,52.0,47.3,45.0,45.0,42.5,40.0,92,83,70,29.97,29.85,8,4,0,0.00
2013-3-9,56.0,51.5,48.0,46.0,9.0,-99.9,88,63,77,30.29,30.24,2,-249,0,0.00
2013-3-10,62.0,52.9,47.0,49.0,45.1,38.0,93,77,45,30.32,30.25,9,4,0,0.00
2013-3-11,66.0,52.1,45.0,50.0,45.9,42.0,95,82,52,30.25,30.11,11,5,0,0.00
2013-3-12,62.0,51.1,46.0,52.0,47.8,45.0,96,89,70,30.14,30.07,12,4,0,0.00
2013-3-13,72.0,53.3,45.0,54.0,48.6,44.0,96,86,52,30.14,30.06,5,1,0,0.00
2013-3-14,56.0,50.1,46.0,52.0,47.5,45.0,96,90,77,30.16,30.08,13,4,0,0.00
2013-3-15,59.0,51.6,47.0,50.0,47.9,45.0,95,88,72,30.12,30.04,18,6,0,0.00
2013-3-16,57.0,50.8,47.0,52.0,47.3,46.0,97,88,77,30.08,30.02,23,10,0,0.00
2013-3-17,58.0,51.6,48.0,46.0,44.6,43.0,86,78,61,30.13,30.04,20,9,0,0.00
2013-3-18,56.0,49.8,46.0,48.0,45.5,44.0,94,86,70,30.10,30.04,14,6,0,0.00
2013-3-19,55.0,49.8,47.0,48.0,45.1,43.0,92,85,70,30.11,30.05,10,4,0,0.00
2013-3-20,57.0,52.0,49.0,53.0,49.1,44.0,96,90,80,30.13,30.06,6,3,0,0.00
2013-3-21,55.0,49.2,44.0,47.0,43.6,40.0,96,81,66,30.12,30.01,14,8,0,0.00
2013-3-22,59.0,51.5,46.0,43.0,38.7,28.0,86,64,36,30.11,30.02,17,4,0,0.00
2013-3-23,63.0,52.9,47.0,45.0,38.9,31.0,87,62,34,30.11,30.05,16,5,0,0.00
2013-3-24,55.0,49.2,46.0,47.0,45.2,44.0,93,86,73,30.08,29.97,18,7,0,0.00
2013-3-25,50.0,47.6,46.0,45.0,44.2,44.0,92,87,79,30.02,29.95,13,9,0,0.00
2013-3-26,53.0,49.3,47.0,47.0,45.1,43.0,92,86,74,30.00,29.93,16,9,0,0.00
2013-3-27,56.0,51.8,48.0,52.0,49.7,46.0,97,92,82,29.99,29.94,7,3,0,0.00
2013-3-28,59.0,54.8,52.0,54.0,52.1,51.0,96,91,81,30.08,29.99,9,4,0,0.00
2013-3-29,71.0,54.5,50.0,55.0,50.2,48.0,96,86,57,30.07,30.02,15,4,0,0.00
2013-3-30,64.0,54.9,50.0,54.0,48.7,-99.9,97,88,62,30.06,29.98,10,5,0,0.00
2013-3-31,62.0,57.1,53.0,55.0,52.3,51.0,94,85,72,30.05,30.00,7,3,0,0.00